sensor_id;sensor_type;location;lat;lon;timestamp;pressure;altitude;pressure_sealevel;temperature;humidity
64095;BME280;50353;51.420;5.682;2022-07-11T00:01:04;102150.97;;;17.73;75.37
64095;BME280;50353;51.420;5.682;2022-07-11T00:03:30;102155.56;;;17.84;74.08
64095;BME280;50353;51.420;5.682;2022-07-11T00:05:55;102162.84;;;17.69;74.54
64095;BME280;50353;51.420;5.682;2022-07-11T00:08:20;102153.41;;;17.38;74.74
64095;BME280;50353;51.420;5.682;2022-07-11T00:10:46;102152.13;;;17.44;74.91
64095;BME280;50353;51.420;5.682;2022-07-11T00:13:12;102159.44;;;17.67;74.59
64095;BME280;50353;51.420;5.682;2022-07-11T00:15:37;102144.31;;;17.40;74.90
64095;BME280;50353;51.420;5.682;2022-07-11T00:18:02;102147.75;;;17.55;74.44
64095;BME280;50353;51.420;5.682;2022-07-11T00:20:28;102144.31;;;17.40;74.58
64095;BME280;50353;51.420;5.682;2022-07-11T00:22:53;102153.13;;;17.43;74.93
64095;BME280;50353;51.420;5.682;2022-07-11T00:25:19;102153.28;;;17.27;75.88
64095;BME280;50353;51.420;5.682;2022-07-11T00:27:44;102151.34;;;17.16;74.93
64095;BME280;50353;51.420;5.682;2022-07-11T00:30:10;102147.44;;;17.34;74.52
64095;BME280;50353;51.420;5.682;2022-07-11T00:32:35;102145.44;;;17.11;76.01
64095;BME280;50353;51.420;5.682;2022-07-11T00:35:00;102143.66;;;17.11;75.74
64095;BME280;50353;51.420;5.682;2022-07-11T00:37:26;102141.31;;;17.32;75.81
64095;BME280;50353;51.420;5.682;2022-07-11T00:39:52;102137.16;;;17.28;73.54
64095;BME280;50353;51.420;5.682;2022-07-11T00:42:17;102139.88;;;17.14;75.51
64095;BME280;50353;51.420;5.682;2022-07-11T00:44:43;102141.34;;;16.92;77.43
64095;BME280;50353;51.420;5.682;2022-07-11T00:47:08;102139.66;;;17.04;76.13
64095;BME280;50353;51.420;5.682;2022-07-11T00:49:33;102132.97;;;17.11;75.45
64095;BME280;50353;51.420;5.682;2022-07-11T00:51:59;102139.16;;;17.12;74.92
64095;BME280;50353;51.420;5.682;2022-07-11T00:54:24;102130.56;;;16.79;76.38
64095;BME280;50353;51.420;5.682;2022-07-11T00:56:51;102129.59;;;16.95;75.50
64095;BME280;50353;51.420;5.682;2022-07-11T00:59:17;102128.63;;;16.96;76.04
64095;BME280;50353;51.420;5.682;2022-07-11T01:01:43;102125.78;;;16.99;76.45
64095;BME280;50353;51.420;5.682;2022-07-11T01:04:09;102123.56;;;16.64;76.98
64095;BME280;50353;51.420;5.682;2022-07-11T01:06:34;102131.63;;;16.77;76.35
64095;BME280;50353;51.420;5.682;2022-07-11T01:09:00;102119.09;;;16.92;76.18
64095;BME280;50353;51.420;5.682;2022-07-11T01:11:26;102121.94;;;17.03;76.37
64095;BME280;50353;51.420;5.682;2022-07-11T01:13:51;102116.16;;;17.09;75.75
64095;BME280;50353;51.420;5.682;2022-07-11T01:16:18;102117.31;;;16.92;74.53
64095;BME280;50353;51.420;5.682;2022-07-11T01:18:46;102122.78;;;17.03;74.45
64095;BME280;50353;51.420;5.682;2022-07-11T01:21:19;102122.00;;;16.74;75.29
64095;BME280;50353;51.420;5.682;2022-07-11T01:23:51;102128.50;;;16.97;74.97
64095;BME280;50353;51.420;5.682;2022-07-11T01:26:18;102127.34;;;16.74;75.42
64095;BME280;50353;51.420;5.682;2022-07-11T01:28:43;102119.16;;;16.50;76.10
64095;BME280;50353;51.420;5.682;2022-07-11T01:31:10;102120.31;;;16.73;75.47
64095;BME280;50353;51.420;5.682;2022-07-11T01:33:36;102116.16;;;16.54;76.62
64095;BME280;50353;51.420;5.682;2022-07-11T01:36:01;102118.28;;;16.49;77.34
64095;BME280;50353;51.420;5.682;2022-07-11T01:38:27;102119.31;;;16.74;76.83
64095;BME280;50353;51.420;5.682;2022-07-11T01:40:53;102124.13;;;16.69;75.99
64095;BME280;50353;51.420;5.682;2022-07-11T01:43:18;102124.06;;;16.56;75.31
64095;BME280;50353;51.420;5.682;2022-07-11T01:45:43;102126.44;;;16.19;76.87
64095;BME280;50353;51.420;5.682;2022-07-11T01:48:09;102121.53;;;16.40;76.30
64095;BME280;50353;51.420;5.682;2022-07-11T01:50:34;102130.00;;;16.47;75.46
64095;BME280;50353;51.420;5.682;2022-07-11T01:52:59;102131.25;;;16.41;74.70
64095;BME280;50353;51.420;5.682;2022-07-11T01:55:24;102130.16;;;16.02;77.63
64095;BME280;50353;51.420;5.682;2022-07-11T01:57:50;102124.72;;;16.18;76.65
64095;BME280;50353;51.420;5.682;2022-07-11T02:00:15;102129.41;;;16.14;77.15
64095;BME280;50353;51.420;5.682;2022-07-11T02:02:40;102131.78;;;16.19;77.31
64095;BME280;50353;51.420;5.682;2022-07-11T02:05:06;102134.53;;;16.17;76.92
64095;BME280;50353;51.420;5.682;2022-07-11T02:07:31;102140.06;;;16.00;78.02
64095;BME280;50353;51.420;5.682;2022-07-11T02:10:15;102144.72;;;15.96;76.84
64095;BME280;50353;51.420;5.682;2022-07-11T02:12:40;102138.63;;;16.09;76.42
64095;BME280;50353;51.420;5.682;2022-07-11T02:15:06;102132.91;;;16.29;76.29
64095;BME280;50353;51.420;5.682;2022-07-11T02:17:31;102128.25;;;16.04;76.84
64095;BME280;50353;51.420;5.682;2022-07-11T02:19:57;102127.28;;;16.19;78.34
64095;BME280;50353;51.420;5.682;2022-07-11T02:22:22;102120.09;;;16.49;77.38
64095;BME280;50353;51.420;5.682;2022-07-11T02:24:47;102124.28;;;16.53;78.51
64095;BME280;50353;51.420;5.682;2022-07-11T02:27:13;102124.88;;;16.44;78.32
64095;BME280;50353;51.420;5.682;2022-07-11T02:29:38;102121.00;;;16.62;78.22
64095;BME280;50353;51.420;5.682;2022-07-11T02:32:04;102117.06;;;16.41;79.54
64095;BME280;50353;51.420;5.682;2022-07-11T02:34:30;102120.25;;;16.60;78.76
64095;BME280;50353;51.420;5.682;2022-07-11T02:36:55;102115.41;;;16.80;78.93
64095;BME280;50353;51.420;5.682;2022-07-11T02:39:20;102120.31;;;16.73;79.19
64095;BME280;50353;51.420;5.682;2022-07-11T02:41:45;102119.78;;;17.08;78.53
64095;BME280;50353;51.420;5.682;2022-07-11T02:44:11;102114.25;;;17.11;80.28
64095;BME280;50353;51.420;5.682;2022-07-11T02:46:36;102114.38;;;17.22;79.45
64095;BME280;50353;51.420;5.682;2022-07-11T02:49:01;102119.34;;;17.01;80.67
64095;BME280;50353;51.420;5.682;2022-07-11T02:51:26;102119.59;;;17.11;80.75
64095;BME280;50353;51.420;5.682;2022-07-11T02:53:52;102111.59;;;17.11;81.74
64095;BME280;50353;51.420;5.682;2022-07-11T02:56:18;102115.25;;;16.96;82.60
64095;BME280;50353;51.420;5.682;2022-07-11T02:58:43;102116.16;;;17.09;82.02
64095;BME280;50353;51.420;5.682;2022-07-11T03:01:08;102118.28;;;17.04;82.37
64095;BME280;50353;51.420;5.682;2022-07-11T03:03:33;102112.88;;;17.18;82.02
64095;BME280;50353;51.420;5.682;2022-07-11T03:05:59;102123.06;;;17.39;80.94
64095;BME280;50353;51.420;5.682;2022-07-11T03:08:24;102115.38;;;17.34;81.19
64095;BME280;50353;51.420;5.682;2022-07-11T03:10:49;102125.09;;;17.48;81.91
64095;BME280;50353;51.420;5.682;2022-07-11T03:13:16;102120.59;;;17.36;82.36
64095;BME280;50353;51.420;5.682;2022-07-11T03:15:41;102117.03;;;17.35;82.23
64095;BME280;50353;51.420;5.682;2022-07-11T03:18:07;102118.47;;;17.41;81.43
64095;BME280;50353;51.420;5.682;2022-07-11T03:20:33;102116.31;;;17.46;81.12
64095;BME280;50353;51.420;5.682;2022-07-11T03:22:58;102121.56;;;17.61;80.78
64095;BME280;50353;51.420;5.682;2022-07-11T03:25:23;102122.22;;;17.64;81.32
64095;BME280;50353;51.420;5.682;2022-07-11T03:27:49;102132.47;;;17.45;82.16
64095;BME280;50353;51.420;5.682;2022-07-11T03:30:14;102120.38;;;17.52;81.44
64095;BME280;50353;51.420;5.682;2022-07-11T03:32:40;102124.66;;;17.54;82.31
64095;BME280;50353;51.420;5.682;2022-07-11T03:35:05;102127.13;;;17.57;81.29
64095;BME280;50353;51.420;5.682;2022-07-11T03:37:49;102127.31;;;17.54;82.12
64095;BME280;50353;51.420;5.682;2022-07-11T03:40:15;102117.03;;;17.22;82.81
64095;BME280;50353;51.420;5.682;2022-07-11T03:42:40;102127.31;;;17.54;81.57
64095;BME280;50353;51.420;5.682;2022-07-11T03:45:06;102124.13;;;17.62;81.81
64095;BME280;50353;51.420;5.682;2022-07-11T03:47:32;102131.50;;;17.58;81.89
64095;BME280;50353;51.420;5.682;2022-07-11T03:49:57;102130.44;;;17.48;83.04
64095;BME280;50353;51.420;5.682;2022-07-11T03:52:22;102134.63;;;17.52;82.24
64095;BME280;50353;51.420;5.682;2022-07-11T03:54:48;102131.41;;;17.34;83.19
64095;BME280;50353;51.420;5.682;2022-07-11T03:57:13;102140.47;;;17.45;82.67
64095;BME280;50353;51.420;5.682;2022-07-11T03:59:38;102129.69;;;17.46;82.62
64095;BME280;50353;51.420;5.682;2022-07-11T04:02:04;102130.75;;;17.44;81.95
64095;BME280;50353;51.420;5.682;2022-07-11T04:04:29;102131.19;;;17.63;80.65
64095;BME280;50353;51.420;5.682;2022-07-11T04:06:54;102125.72;;;17.26;82.93
64095;BME280;50353;51.420;5.682;2022-07-11T04:09:20;102125.41;;;17.56;81.69
64095;BME280;50353;51.420;5.682;2022-07-11T04:11:45;102127.56;;;17.77;80.09
64095;BME280;50353;51.420;5.682;2022-07-11T04:14:10;102125.22;;;17.72;80.25
64095;BME280;50353;51.420;5.682;2022-07-11T04:16:35;102132.03;;;17.89;79.15
64095;BME280;50353;51.420;5.682;2022-07-11T04:19:01;102128.31;;;17.66;80.44
64095;BME280;50353;51.420;5.682;2022-07-11T04:21:26;102140.09;;;17.77;79.73
64095;BME280;50353;51.420;5.682;2022-07-11T04:23:51;102134.41;;;17.81;78.77
64095;BME280;50353;51.420;5.682;2022-07-11T04:26:17;102132.91;;;17.51;80.48
64095;BME280;50353;51.420;5.682;2022-07-11T04:28:42;102133.09;;;17.61;80.18
64095;BME280;50353;51.420;5.682;2022-07-11T04:31:07;102138.28;;;17.64;79.58
64095;BME280;50353;51.420;5.682;2022-07-11T04:33:32;102131.31;;;17.87;78.38
64095;BME280;50353;51.420;5.682;2022-07-11T04:35:58;102131.41;;;17.73;79.12
64095;BME280;50353;51.420;5.682;2022-07-11T04:38:23;102133.97;;;17.87;76.89
64095;BME280;50353;51.420;5.682;2022-07-11T04:40:49;102130.31;;;17.88;78.73
64095;BME280;50353;51.420;5.682;2022-07-11T04:43:14;102136.66;;;17.62;80.09
64095;BME280;50353;51.420;5.682;2022-07-11T04:45:40;102135.78;;;17.61;80.35
64095;BME280;50353;51.420;5.682;2022-07-11T04:48:05;102137.63;;;17.86;78.23
64095;BME280;50353;51.420;5.682;2022-07-11T04:50:31;102136.34;;;17.92;76.99
64095;BME280;50353;51.420;5.682;2022-07-11T04:52:56;102142.53;;;17.93;77.51
64095;BME280;50353;51.420;5.682;2022-07-11T04:55:22;102147.13;;;17.78;79.24
64095;BME280;50353;51.420;5.682;2022-07-11T04:57:47;102146.81;;;17.95;78.68
64095;BME280;50353;51.420;5.682;2022-07-11T05:00:14;102146.19;;;17.66;80.45
64095;BME280;50353;51.420;5.682;2022-07-11T05:02:39;102144.03;;;17.84;78.04
64095;BME280;50353;51.420;5.682;2022-07-11T05:05:05;102148.09;;;17.89;79.15
64095;BME280;50353;51.420;5.682;2022-07-11T05:07:30;102147.66;;;17.83;79.68
64095;BME280;50353;51.420;5.682;2022-07-11T05:09:56;102153.25;;;17.93;78.62
64095;BME280;50353;51.420;5.682;2022-07-11T05:12:22;102156.03;;;17.78;79.63
64095;BME280;50353;51.420;5.682;2022-07-11T05:14:48;102155.03;;;17.79;80.13
64095;BME280;50353;51.420;5.682;2022-07-11T05:17:13;102165.25;;;18.00;78.08
64095;BME280;50353;51.420;5.682;2022-07-11T05:19:38;102157.06;;;17.88;79.88
64095;BME280;50353;51.420;5.682;2022-07-11T05:22:04;102168.75;;;18.00;79.11
64095;BME280;50353;51.420;5.682;2022-07-11T05:24:29;102164.34;;;17.61;82.15
64095;BME280;50353;51.420;5.682;2022-07-11T05:26:54;102162.25;;;17.92;80.50
64095;BME280;50353;51.420;5.682;2022-07-11T05:29:20;102174.31;;;17.71;82.04
64095;BME280;50353;51.420;5.682;2022-07-11T05:31:45;102168.19;;;17.69;82.43
64095;BME280;50353;51.420;5.682;2022-07-11T05:34:15;102159.97;;;17.85;81.20
64095;BME280;50353;51.420;5.682;2022-07-11T05:36:41;102163.19;;;17.65;82.76
64095;BME280;50353;51.420;5.682;2022-07-11T05:39:08;102170.53;;;17.61;83.28
64095;BME280;50353;51.420;5.682;2022-07-11T05:41:33;102166.91;;;17.62;83.14
64095;BME280;50353;51.420;5.682;2022-07-11T05:43:58;102169.06;;;17.70;83.08
64095;BME280;50353;51.420;5.682;2022-07-11T05:46:24;102162.63;;;17.60;83.55
64095;BME280;50353;51.420;5.682;2022-07-11T05:48:49;102167.75;;;17.63;83.98
64095;BME280;50353;51.420;5.682;2022-07-11T05:51:14;102171.19;;;17.65;83.62
64095;BME280;50353;51.420;5.682;2022-07-11T05:53:41;102171.19;;;17.65;83.23
64095;BME280;50353;51.420;5.682;2022-07-11T05:56:07;102169.25;;;17.67;83.05
64095;BME280;50353;51.420;5.682;2022-07-11T05:58:32;102170.56;;;17.74;82.77
64095;BME280;50353;51.420;5.682;2022-07-11T06:00:58;102174.09;;;17.74;82.94
64095;BME280;50353;51.420;5.682;2022-07-11T06:03:23;102175.91;;;17.74;82.93
64095;BME280;50353;51.420;5.682;2022-07-11T06:05:49;102169.91;;;17.57;84.12
64095;BME280;50353;51.420;5.682;2022-07-11T06:08:14;102173.09;;;17.63;83.69
64095;BME280;50353;51.420;5.682;2022-07-11T06:10:58;102179.88;;;17.68;83.41
64095;BME280;50353;51.420;5.682;2022-07-11T06:13:24;102177.63;;;17.49;84.07
64095;BME280;50353;51.420;5.682;2022-07-11T06:15:49;102180.50;;;17.72;83.23
64095;BME280;50353;51.420;5.682;2022-07-11T06:18:14;102187.47;;;17.62;84.43
64095;BME280;50353;51.420;5.682;2022-07-11T06:20:39;102182.44;;;17.70;83.96
64095;BME280;50353;51.420;5.682;2022-07-11T06:23:05;102182.75;;;17.52;85.91
64095;BME280;50353;51.420;5.682;2022-07-11T06:25:31;102189.47;;;17.45;86.18
64095;BME280;50353;51.420;5.682;2022-07-11T06:27:57;102184.06;;;17.72;84.77
64095;BME280;50353;51.420;5.682;2022-07-11T06:30:22;102196.31;;;17.75;85.07
64095;BME280;50353;51.420;5.682;2022-07-11T06:32:47;102195.06;;;17.81;85.01
64095;BME280;50353;51.420;5.682;2022-07-11T06:35:12;102202.53;;;17.88;84.16
64095;BME280;50353;51.420;5.682;2022-07-11T06:37:38;102192.47;;;17.66;85.27
64095;BME280;50353;51.420;5.682;2022-07-11T06:40:03;102193.56;;;17.77;85.55
64095;BME280;50353;51.420;5.682;2022-07-11T06:42:35;102196.81;;;17.95;83.91
64095;BME280;50353;51.420;5.682;2022-07-11T06:45:00;102194.38;;;17.92;83.82
64095;BME280;50353;51.420;5.682;2022-07-11T06:47:25;102193.44;;;17.91;84.43
64095;BME280;50353;51.420;5.682;2022-07-11T06:49:51;102197.31;;;17.87;84.68
64095;BME280;50353;51.420;5.682;2022-07-11T06:52:16;102188.50;;;17.46;88.20
64095;BME280;50353;51.420;5.682;2022-07-11T06:54:42;102194.63;;;17.74;86.21
64095;BME280;50353;51.420;5.682;2022-07-11T06:57:08;102194.19;;;17.67;86.76
64095;BME280;50353;51.420;5.682;2022-07-11T06:59:33;102195.16;;;17.53;87.69
64095;BME280;50353;51.420;5.682;2022-07-11T07:01:58;102190.66;;;17.67;87.05
64095;BME280;50353;51.420;5.682;2022-07-11T07:04:24;102199.00;;;17.75;87.22
64095;BME280;50353;51.420;5.682;2022-07-11T07:06:49;102195.47;;;17.74;86.08
64095;BME280;50353;51.420;5.682;2022-07-11T07:09:15;102190.91;;;17.77;86.52
64095;BME280;50353;51.420;5.682;2022-07-11T07:11:40;102194.75;;;17.85;86.42
64095;BME280;50353;51.420;5.682;2022-07-11T07:14:05;102187.06;;;18.06;86.18
64095;BME280;50353;51.420;5.682;2022-07-11T07:16:31;102188.03;;;18.05;84.90
64095;BME280;50353;51.420;5.682;2022-07-11T07:18:57;102188.69;;;17.96;85.65
64095;BME280;50353;51.420;5.682;2022-07-11T07:21:22;102189.84;;;17.92;86.13
64095;BME280;50353;51.420;5.682;2022-07-11T07:23:47;102173.97;;;17.76;87.11
64095;BME280;50353;51.420;5.682;2022-07-11T07:26:13;102190.16;;;17.87;87.62
64095;BME280;50353;51.420;5.682;2022-07-11T07:28:38;102181.47;;;17.84;85.85
64095;BME280;50353;51.420;5.682;2022-07-11T07:31:05;102187.25;;;17.90;86.27
64095;BME280;50353;51.420;5.682;2022-07-11T07:33:30;102190.16;;;18.13;84.97
64095;BME280;50353;51.420;5.682;2022-07-11T07:35:56;102182.22;;;18.24;84.14
64095;BME280;50353;51.420;5.682;2022-07-11T07:38:21;102182.34;;;18.10;83.66
64095;BME280;50353;51.420;5.682;2022-07-11T07:40:46;102187.88;;;18.20;83.61
64095;BME280;50353;51.420;5.682;2022-07-11T07:43:11;102186.59;;;18.38;83.73
64095;BME280;50353;51.420;5.682;2022-07-11T07:45:37;102184.75;;;18.39;83.50
64095;BME280;50353;51.420;5.682;2022-07-11T07:48:02;102185.06;;;18.47;81.95
64095;BME280;50353;51.420;5.682;2022-07-11T07:50:27;102187.25;;;18.29;82.40
64095;BME280;50353;51.420;5.682;2022-07-11T07:52:53;102177.78;;;18.36;83.50
64095;BME280;50353;51.420;5.682;2022-07-11T07:55:19;102177.47;;;18.41;82.00
64095;BME280;50353;51.420;5.682;2022-07-11T07:57:44;102177.53;;;18.65;81.10
64095;BME280;50353;51.420;5.682;2022-07-11T08:00:10;102184.66;;;18.78;81.25
64095;BME280;50353;51.420;5.682;2022-07-11T08:02:54;102181.00;;;19.27;79.04
64095;BME280;50353;51.420;5.682;2022-07-11T08:05:20;102179.34;;;19.37;75.55
64095;BME280;50353;51.420;5.682;2022-07-11T08:07:45;102186.81;;;19.56;76.49
64095;BME280;50353;51.420;5.682;2022-07-11T08:10:11;102191.03;;;19.36;77.53
64095;BME280;50353;51.420;5.682;2022-07-11T08:12:36;102189.28;;;19.24;77.83
64095;BME280;50353;51.420;5.682;2022-07-11T08:15:02;102192.13;;;19.34;78.37
64095;BME280;50353;51.420;5.682;2022-07-11T08:17:27;102193.63;;;19.49;77.52
64095;BME280;50353;51.420;5.682;2022-07-11T08:19:53;102197.41;;;20.16;71.12
64095;BME280;50353;51.420;5.682;2022-07-11T08:22:18;102199.38;;;20.14;73.78
64095;BME280;50353;51.420;5.682;2022-07-11T08:24:43;102202.06;;;20.03;74.58
64095;BME280;50353;51.420;5.682;2022-07-11T08:27:09;102198.00;;;20.31;72.65
64095;BME280;50353;51.420;5.682;2022-07-11T08:29:34;102199.84;;;21.08;69.02
64095;BME280;50353;51.420;5.682;2022-07-11T08:32:00;102192.28;;;20.70;69.29
64095;BME280;50353;51.420;5.682;2022-07-11T08:34:25;102202.84;;;20.60;67.64
64095;BME280;50353;51.420;5.682;2022-07-11T08:36:51;102208.34;;;20.81;68.53
64095;BME280;50353;51.420;5.682;2022-07-11T08:39:16;102202.31;;;20.11;73.75
64095;BME280;50353;51.420;5.682;2022-07-11T08:41:45;102200.84;;;20.07;73.32
64095;BME280;50353;51.420;5.682;2022-07-11T08:44:16;102202.56;;;20.19;72.71
64095;BME280;50353;51.420;5.682;2022-07-11T08:46:43;102207.16;;;19.83;74.83
64095;BME280;50353;51.420;5.682;2022-07-11T08:49:11;102197.75;;;19.89;73.61
64095;BME280;50353;51.420;5.682;2022-07-11T08:51:37;102197.44;;;19.58;75.62
64095;BME280;50353;51.420;5.682;2022-07-11T08:54:03;102207.59;;;19.77;74.49
64095;BME280;50353;51.420;5.682;2022-07-11T08:56:30;102207.94;;;19.72;74.02
64095;BME280;50353;51.420;5.682;2022-07-11T08:58:57;102198.00;;;19.86;73.75
64095;BME280;50353;51.420;5.682;2022-07-11T09:01:31;102203.75;;;19.81;73.62
64095;BME280;50353;51.420;5.682;2022-07-11T09:03:58;102185.44;;;19.86;73.48
64095;BME280;50353;51.420;5.682;2022-07-11T09:06:24;102186.69;;;20.05;72.69
64095;BME280;50353;51.420;5.682;2022-07-11T09:08:49;102194.50;;;20.19;71.67
64095;BME280;50353;51.420;5.682;2022-07-11T09:11:15;102200.47;;;20.12;72.52
64095;BME280;50353;51.420;5.682;2022-07-11T09:13:40;102202.53;;;19.97;73.21
64095;BME280;50353;51.420;5.682;2022-07-11T09:16:08;102198.84;;;19.86;73.07
64095;BME280;50353;51.420;5.682;2022-07-11T09:18:40;102197.81;;;19.65;74.34
64095;BME280;50353;51.420;5.682;2022-07-11T09:21:08;102198.53;;;19.67;75.10
64095;BME280;50353;51.420;5.682;2022-07-11T09:23:53;102189.94;;;19.86;73.48
64095;BME280;50353;51.420;5.682;2022-07-11T09:26:40;102189.94;;;19.86;73.96
64095;BME280;50353;51.420;5.682;2022-07-11T09:29:11;102199.13;;;19.59;73.61
64095;BME280;50353;51.420;5.682;2022-07-11T09:31:38;102197.28;;;19.48;73.89
64095;BME280;50353;51.420;5.682;2022-07-11T09:34:10;102211.69;;;19.58;73.57
64095;BME280;50353;51.420;5.682;2022-07-11T09:36:45;102201.56;;;19.51;74.59
64095;BME280;50353;51.420;5.682;2022-07-11T09:39:16;102194.13;;;19.43;75.67
64095;BME280;50353;51.420;5.682;2022-07-11T09:41:42;102206.44;;;19.46;74.95
64095;BME280;50353;51.420;5.682;2022-07-11T09:44:23;102201.22;;;19.55;74.00
64095;BME280;50353;51.420;5.682;2022-07-11T09:46:50;102203.78;;;19.57;73.51
64095;BME280;50353;51.420;5.682;2022-07-11T09:49:38;102188.50;;;19.46;74.36
64095;BME280;50353;51.420;5.682;2022-07-11T09:52:14;102195.84;;;19.55;74.07
64095;BME280;50353;51.420;5.682;2022-07-11T09:54:59;102191.22;;;19.57;74.03
64095;BME280;50353;51.420;5.682;2022-07-11T09:57:30;102203.34;;;19.74;73.85
64095;BME280;50353;51.420;5.682;2022-07-11T09:59:56;102200.72;;;19.62;74.08
64095;BME280;50353;51.420;5.682;2022-07-11T10:02:22;102199.34;;;19.45;73.98
64095;BME280;50353;51.420;5.682;2022-07-11T10:04:48;102193.88;;;19.46;73.94
64095;BME280;50353;51.420;5.682;2022-07-11T10:07:14;102200.59;;;19.16;75.73
64095;BME280;50353;51.420;5.682;2022-07-11T10:09:40;102200.34;;;19.55;74.70
64095;BME280;50353;51.420;5.682;2022-07-11T10:12:06;102193.44;;;19.64;74.48
64095;BME280;50353;51.420;5.682;2022-07-11T10:14:35;102192.69;;;19.62;74.44
64095;BME280;50353;51.420;5.682;2022-07-11T10:19:50;102203.44;;;19.73;74.77
64095;BME280;50353;51.420;5.682;2022-07-11T10:22:29;102193.44;;;19.64;74.37
64095;BME280;50353;51.420;5.682;2022-07-11T10:28:06;102203.38;;;19.86;74.08
64095;BME280;50353;51.420;5.682;2022-07-11T10:33:05;102203.97;;;20.46;71.71
64095;BME280;50353;51.420;5.682;2022-07-11T10:35:31;102206.78;;;20.44;71.52
64095;BME280;50353;51.420;5.682;2022-07-11T10:37:57;102211.81;;;20.49;71.41
64095;BME280;50353;51.420;5.682;2022-07-11T10:40:52;102201.56;;;20.09;74.24
64095;BME280;50353;51.420;5.682;2022-07-11T10:46:01;102206.09;;;20.08;73.00
64095;BME280;50353;51.420;5.682;2022-07-11T10:48:28;102213.28;;;20.19;73.25
64095;BME280;50353;51.420;5.682;2022-07-11T10:51:21;102214.47;;;19.81;73.54
64095;BME280;50353;51.420;5.682;2022-07-11T10:53:51;102204.72;;;19.91;74.11
64095;BME280;50353;51.420;5.682;2022-07-11T10:56:41;102210.34;;;19.88;74.93
64095;BME280;50353;51.420;5.682;2022-07-11T10:59:15;102202.66;;;19.84;74.82
64095;BME280;50353;51.420;5.682;2022-07-11T11:04:43;102210.34;;;20.22;72.10
64095;BME280;50353;51.420;5.682;2022-07-11T11:10:05;102213.31;;;19.72;73.53
64095;BME280;50353;51.420;5.682;2022-07-11T11:15:46;102217.91;;;20.17;72.28
64095;BME280;50353;51.420;5.682;2022-07-11T11:26:15;102217.53;;;20.56;70.89
64095;BME280;50353;51.420;5.682;2022-07-11T11:29:00;102217.78;;;20.53;70.05
64095;BME280;50353;51.420;5.682;2022-07-11T11:31:27;102213.72;;;20.58;70.44
64095;BME280;50353;51.420;5.682;2022-07-11T11:33:54;102226.81;;;20.40;72.05
64095;BME280;50353;51.420;5.682;2022-07-11T11:36:22;102218.50;;;20.09;73.13
64095;BME280;50353;51.420;5.682;2022-07-11T11:38:47;102225.25;;;20.26;71.88
64095;BME280;50353;51.420;5.682;2022-07-11T11:41:29;102216.91;;;19.96;73.56
64095;BME280;50353;51.420;5.682;2022-07-11T11:43:56;102212.78;;;20.14;73.32
64095;BME280;50353;51.420;5.682;2022-07-11T11:46:26;102210.72;;;20.06;73.31
64095;BME280;50353;51.420;5.682;2022-07-11T11:48:59;102211.06;;;20.24;73.80
64095;BME280;50353;51.420;5.682;2022-07-11T11:51:30;102209.50;;;20.33;73.24
64095;BME280;50353;51.420;5.682;2022-07-11T11:53:58;102214.25;;;20.07;72.71
64095;BME280;50353;51.420;5.682;2022-07-11T11:59:05;102213.75;;;20.13;70.73
64095;BME280;50353;51.420;5.682;2022-07-11T12:01:34;102207.41;;;20.48;71.97
64095;BME280;50353;51.420;5.682;2022-07-11T12:04:02;102216.19;;;20.73;70.74
64095;BME280;50353;51.420;5.682;2022-07-11T12:06:30;102200.25;;;20.92;69.05
64095;BME280;50353;51.420;5.682;2022-07-11T12:09:03;102211.97;;;21.03;68.45
64095;BME280;50353;51.420;5.682;2022-07-11T12:11:29;102215.34;;;21.05;68.90
64095;BME280;50353;51.420;5.682;2022-07-11T12:13:59;102208.19;;;21.26;66.83
64095;BME280;50353;51.420;5.682;2022-07-11T12:16:25;102194.72;;;21.38;68.48
64095;BME280;50353;51.420;5.682;2022-07-11T12:19:11;102205.47;;;21.38;66.17
64095;BME280;50353;51.420;5.682;2022-07-11T12:21:41;102196.16;;;21.63;64.15
64095;BME280;50353;51.420;5.682;2022-07-11T12:24:07;102200.03;;;21.70;65.87
64095;BME280;50353;51.420;5.682;2022-07-11T12:26:37;102190.28;;;21.69;64.28
64095;BME280;50353;51.420;5.682;2022-07-11T12:29:08;102192.31;;;21.56;64.42
64095;BME280;50353;51.420;5.682;2022-07-11T12:31:51;102199.06;;;21.39;65.42
64095;BME280;50353;51.420;5.682;2022-07-11T12:34:20;102194.16;;;21.44;67.01
64095;BME280;50353;51.420;5.682;2022-07-11T12:36:46;102195.75;;;21.47;65.29
64095;BME280;50353;51.420;5.682;2022-07-11T12:39:26;102196.06;;;21.32;66.99
64095;BME280;50353;51.420;5.682;2022-07-11T12:41:52;102202.50;;;21.41;67.33
64095;BME280;50353;51.420;5.682;2022-07-11T12:44:26;102193.28;;;21.55;66.39
64095;BME280;50353;51.420;5.682;2022-07-11T12:47:11;102193.16;;;21.56;65.99
64095;BME280;50353;51.420;5.682;2022-07-11T12:49:36;102190.47;;;21.56;64.45
64095;BME280;50353;51.420;5.682;2022-07-11T12:52:02;102183.97;;;21.59;66.05
64095;BME280;50353;51.420;5.682;2022-07-11T12:54:31;102185.94;;;21.57;66.47
64095;BME280;50353;51.420;5.682;2022-07-11T12:56:58;102184.47;;;21.74;64.37
64095;BME280;50353;51.420;5.682;2022-07-11T12:59:25;102177.38;;;21.52;65.73
64095;BME280;50353;51.420;5.682;2022-07-11T13:10:05;102182.75;;;21.73;64.61
64095;BME280;50353;51.420;5.682;2022-07-11T13:12:31;102181.00;;;21.41;67.01
64095;BME280;50353;51.420;5.682;2022-07-11T13:15:00;102183.50;;;21.54;65.23
64095;BME280;50353;51.420;5.682;2022-07-11T13:17:49;102178.16;;;21.64;67.39
64095;BME280;50353;51.420;5.682;2022-07-11T13:20:20;102183.41;;;22.17;64.19
64095;BME280;50353;51.420;5.682;2022-07-11T13:22:47;102183.22;;;21.78;63.89
64095;BME280;50353;51.420;5.682;2022-07-11T13:25:13;102191.00;;;21.39;66.87
64095;BME280;50353;51.420;5.682;2022-07-11T13:27:42;102189.13;;;21.51;65.51
64095;BME280;50353;51.420;5.682;2022-07-11T13:30:13;102184.75;;;21.71;65.94